createdAt,value
2018-12-14T00:01:02.824Z,10.88
2018-12-14T00:03:32.640Z,9.15
2018-12-14T00:06:01.472Z,9.83
2018-12-14T00:08:31.180Z,10.48
2018-12-14T00:11:10.237Z,10.50
2018-12-14T00:13:39.096Z,10.40
2018-12-14T00:16:07.960Z,10.55
2018-12-14T00:18:37.811Z,11.30
2018-12-14T00:21:06.804Z,9.85
2018-12-14T00:23:37.496Z,10.58
2018-12-14T00:26:07.684Z,11.18
2018-12-14T00:28:38.328Z,9.80
2018-12-14T00:31:09.470Z,10.13
2018-12-14T00:33:40.232Z,10.15
2018-12-14T00:36:10.088Z,10.08
2018-12-14T00:38:39.096Z,9.68
2018-12-14T00:41:12.800Z,10.58
2018-12-14T00:43:45.372Z,10.60
2018-12-14T00:46:18.068Z,8.70
2018-12-14T00:48:46.968Z,10.40
2018-12-14T00:51:23.992Z,8.38
2018-12-14T00:53:58.556Z,10.38
2018-12-14T00:56:29.300Z,10.15
2018-12-14T00:58:59.128Z,10.40
2018-12-14T01:01:32.320Z,11.57
2018-12-14T01:04:04.996Z,9.53
2018-12-14T01:42:41.240Z,9.53
2018-12-14T02:03:48.876Z,9.00
2018-12-14T02:43:00.276Z,10.43
2018-12-14T03:03:27.856Z,9.45
2018-12-14T03:24:00.944Z,9.70
2018-12-14T03:44:33.267Z,9.43
2018-12-14T04:44:57.005Z,8.48
2018-12-14T05:05:29.482Z,9.10
2018-12-14T05:26:01.769Z,9.98
2018-12-14T05:46:27.353Z,9.78
2018-12-14T06:07:00.314Z,9.33
2018-12-14T06:27:32.533Z,9.65
2018-12-14T06:48:06.261Z,7.45
2018-12-14T07:08:45.881Z,10.68
2018-12-14T07:38:27.095Z,11.38
2018-12-14T07:40:56.965Z,10.18
2018-12-14T07:43:28.466Z,10.18
2018-12-14T07:45:58.498Z,10.05
2018-12-14T07:48:31.463Z,10.58
2018-12-14T07:51:01.277Z,10.50
2018-12-14T07:53:35.689Z,9.40
2018-12-14T07:56:10.249Z,10.63
2018-12-14T07:58:39.205Z,8.43
2018-12-14T08:01:09.956Z,10.45
2018-12-14T08:03:40.765Z,9.40
2018-12-14T08:06:10.546Z,9.33
2018-12-14T08:08:41.282Z,9.00
2018-12-14T08:11:11.069Z,10.05
2018-12-14T08:13:39.929Z,9.75
2018-12-14T08:16:08.750Z,9.30
2018-12-14T08:18:42.179Z,9.90
2018-12-14T08:21:16.117Z,11.22
2018-12-14T08:23:44.841Z,9.80
2018-12-14T08:26:16.410Z,10.20
2018-12-14T08:28:45.262Z,10.32
2018-12-14T08:31:14.127Z,10.72
2018-12-14T08:33:42.937Z,9.73
2018-12-14T08:36:11.647Z,10.82
2018-12-14T08:38:45.410Z,10.55
2018-12-14T08:41:16.250Z,10.55
2018-12-14T08:43:49.141Z,10.23
2018-12-14T08:46:19.918Z,9.35
2018-12-14T08:48:48.706Z,9.80
2018-12-14T08:51:19.489Z,9.93
2018-12-14T08:53:49.358Z,9.73
2018-12-14T08:56:22.645Z,10.43
2018-12-14T08:58:51.442Z,10.85
2018-12-14T09:01:21.406Z,12.47
2018-12-14T09:03:50.306Z,9.98
2018-12-14T09:06:19.018Z,10.35
2018-12-14T09:08:49.769Z,8.80
2018-12-14T09:11:23.858Z,9.43
2018-12-14T09:13:52.647Z,9.35
2018-12-14T09:16:21.611Z,9.95
2018-12-14T09:18:54.306Z,10.50
2018-12-14T09:21:34.011Z,7.67
2018-12-14T09:24:08.988Z,9.60
2018-12-14T09:26:48.995Z,9.50
2018-12-14T09:29:17.818Z,11.00
2018-12-14T09:31:48.834Z,9.05
2018-12-14T09:34:17.698Z,9.00
2018-12-14T09:36:46.539Z,8.98
2018-12-14T09:39:15.405Z,9.18
2018-12-14T09:41:44.218Z,9.13
2018-12-14T09:44:13.996Z,9.50
2018-12-14T09:46:44.710Z,10.50
2018-12-14T09:49:13.446Z,10.48
2018-12-14T09:51:43.072Z,10.72
2018-12-14T09:54:11.842Z,8.63
2018-12-14T09:56:40.662Z,8.95
2018-12-14T09:59:14.102Z,10.25
2018-12-14T10:01:43.986Z,10.00
2018-12-14T10:04:16.478Z,9.88
2018-12-14T10:06:50.746Z,9.95
2018-12-14T10:09:19.607Z,8.78
2018-12-14T10:11:55.025Z,10.60
2018-12-14T10:14:20.075Z,8.68
2018-12-14T10:17:09.382Z,10.13
2018-12-14T10:19:42.874Z,9.20
2018-12-14T10:22:11.702Z,9.53
2018-12-14T10:24:44.166Z,8.95
2018-12-14T10:27:14.861Z,9.15
2018-12-14T10:29:43.726Z,9.55
2018-12-14T10:32:12.574Z,10.32
2018-12-14T10:34:41.434Z,11.25
2018-12-14T10:37:13.820Z,9.23
2018-12-14T10:39:44.677Z,8.98
2018-12-14T10:42:17.258Z,9.55
2018-12-14T10:44:46.938Z,9.00
2018-12-14T10:47:17.702Z,9.53
2018-12-14T10:49:50.902Z,8.95
2018-12-14T10:52:20.133Z,9.15
2018-12-14T10:54:48.970Z,9.00
2018-12-14T10:57:28.187Z,8.38
2018-12-14T10:59:57.038Z,11.12
2018-12-14T11:02:25.901Z,9.45
2018-12-14T11:04:54.746Z,9.35
2018-12-14T11:07:23.623Z,9.68
2018-12-14T11:09:53.265Z,8.33
2018-12-14T11:12:29.907Z,9.80
2018-12-14T11:15:02.409Z,8.48
2018-12-14T11:17:31.333Z,7.72
2018-12-14T11:20:01.113Z,8.70
2018-12-14T11:22:33.469Z,8.58
2018-12-14T11:25:02.445Z,10.10
2018-12-14T11:27:32.110Z,8.55
2018-12-14T11:30:00.994Z,9.05
2018-12-14T11:32:32.022Z,9.70
2018-12-14T11:35:00.722Z,10.28
2018-12-14T11:37:33.106Z,7.12
2018-12-14T11:40:08.065Z,8.53
2018-12-14T11:42:37.842Z,10.70
2018-12-14T11:45:08.613Z,8.88
2018-12-14T11:47:47.429Z,7.03
2018-12-14T11:50:16.235Z,6.75
2018-12-14T11:52:48.509Z,8.60
2018-12-14T11:55:46.581Z,6.83
2018-12-14T11:58:15.470Z,7.62
2018-12-14T12:00:46.185Z,6.10
2018-12-14T12:03:20.721Z,6.12
2018-12-14T12:05:53.181Z,5.42
2018-12-14T12:08:40.625Z,6.58
2018-12-14T12:11:10.469Z,6.33
2018-12-14T12:13:41.142Z,5.90
2018-12-14T12:16:10.030Z,8.98
2018-12-14T12:18:44.064Z,7.37
2018-12-14T12:21:16.866Z,6.95
2018-12-14T12:23:46.674Z,5.40
2018-12-14T12:26:17.717Z,5.33
2018-12-14T12:28:47.461Z,5.65
2018-12-14T12:31:16.385Z,6.62
2018-12-14T12:33:47.229Z,6.50
2018-12-14T12:36:16.022Z,7.22
2018-12-14T12:38:46.870Z,9.35
2018-12-14T12:41:19.649Z,10.53
2018-12-14T12:43:48.461Z,8.20
2018-12-14T12:46:17.193Z,8.85
2018-12-14T12:48:46.321Z,9.55
2018-12-14T12:51:16.561Z,9.40
2018-12-14T12:53:45.345Z,8.03
2018-12-14T12:56:14.417Z,8.70
2018-12-14T12:58:43.212Z,9.13
2018-12-14T13:01:12.926Z,7.33
2018-12-14T13:03:43.689Z,7.35
2018-12-14T13:06:16.749Z,7.85
2018-12-14T13:08:47.501Z,8.43
2018-12-14T13:11:17.297Z,6.75
2018-12-14T13:13:46.117Z,7.40
2018-12-14T13:16:14.977Z,7.97
2018-12-14T13:18:47.212Z,7.12
2018-12-14T13:21:16.210Z,7.53
2018-12-14T13:23:45.101Z,7.60
2018-12-14T13:26:13.897Z,8.40
2018-12-14T13:28:42.701Z,7.53
2018-12-14T13:31:11.512Z,9.28
2018-12-14T13:33:47.429Z,8.10
2018-12-14T13:36:17.233Z,7.72
2018-12-14T13:38:47.045Z,7.37
2018-12-14T13:41:15.914Z,8.53
2018-12-14T13:43:44.757Z,8.05
2018-12-14T13:46:14.541Z,7.45
2018-12-14T13:48:43.456Z,7.42
2018-12-14T13:51:13.209Z,9.03
2018-12-14T13:53:42.077Z,7.55
2018-12-14T13:56:10.921Z,7.87
2018-12-14T13:58:40.633Z,7.97
2018-12-14T14:01:09.501Z,8.65
2018-12-14T14:03:41.157Z,8.18
2018-12-14T14:06:16.953Z,6.83
2018-12-14T14:08:46.701Z,8.55
2018-12-14T14:11:16.350Z,7.45
2018-12-14T14:13:45.241Z,8.15
2018-12-14T14:16:14.133Z,8.28
2018-12-14T14:18:43.965Z,7.58
2018-12-14T14:21:12.853Z,7.90
2018-12-14T14:23:41.597Z,7.37
2018-12-14T14:26:11.309Z,7.85
2018-12-14T14:28:40.138Z,8.00
2018-12-14T14:31:09.029Z,7.50
2018-12-14T14:33:37.828Z,16.85
2018-12-14T14:36:07.733Z,13.35
2018-12-14T14:38:39.493Z,8.85
2018-12-14T14:41:09.316Z,6.80
2018-12-14T14:43:38.985Z,7.08
2018-12-14T14:46:07.943Z,6.28
2018-12-14T14:48:38.717Z,6.85
2018-12-14T14:51:08.950Z,6.08
2018-12-14T14:53:41.329Z,7.72
2018-12-14T14:56:10.061Z,6.20
2018-12-14T14:58:39.721Z,7.12
2018-12-14T15:01:09.512Z,6.70
2018-12-14T15:03:39.301Z,6.47
2018-12-14T15:06:10.070Z,7.03
2018-12-14T15:08:39.781Z,5.62
2018-12-14T15:11:09.581Z,7.33
2018-12-14T15:13:41.253Z,8.58
2018-12-14T15:16:14.866Z,8.08
2018-12-14T15:18:47.618Z,7.33
2018-12-14T15:21:16.482Z,8.38
2018-12-14T15:23:45.362Z,7.80
2018-12-14T15:26:14.126Z,5.62
2018-12-14T15:28:43.837Z,7.20
2018-12-14T15:31:12.573Z,6.80
2018-12-14T15:33:41.381Z,6.65
2018-12-14T15:36:14.232Z,5.90
2018-12-14T15:38:47.649Z,6.83
2018-12-14T15:41:16.438Z,7.45
2018-12-14T15:43:45.325Z,7.20
2018-12-14T15:46:21.469Z,6.05
2018-12-14T15:48:50.276Z,6.22
2018-12-14T15:51:19.001Z,5.03
2018-12-14T15:53:47.769Z,7.05
2018-12-14T15:56:18.477Z,8.38
2018-12-14T15:58:48.090Z,5.72
2018-12-14T16:01:22.202Z,7.12
2018-12-14T16:03:54.238Z,6.30
2018-12-14T16:06:24.102Z,6.28
2018-12-14T16:08:53.849Z,5.50
2018-12-14T16:11:22.693Z,6.00
2018-12-14T16:13:53.654Z,6.92
2018-12-14T16:16:24.454Z,5.95
2018-12-14T16:18:53.274Z,5.12
2018-12-14T16:21:22.106Z,5.17
2018-12-14T16:23:50.879Z,6.28
2018-12-14T16:26:20.870Z,5.30
2018-12-14T16:28:49.714Z,6.15
2018-12-14T16:31:23.057Z,5.87
2018-12-14T16:33:52.822Z,5.78
2018-12-14T16:36:26.494Z,6.12
2018-12-14T16:38:56.374Z,5.72
2018-12-14T16:41:27.078Z,5.60
2018-12-14T16:43:56.858Z,5.22
2018-12-14T16:46:26.594Z,4.40
2018-12-14T16:48:57.294Z,4.95
2018-12-14T16:51:26.115Z,5.37
2018-12-14T16:54:01.827Z,5.12
2018-12-14T16:56:30.530Z,4.70
2018-12-14T16:59:07.590Z,5.45
2018-12-14T17:01:36.422Z,5.87
2018-12-14T17:04:05.294Z,5.65
2018-12-14T17:06:34.129Z,5.75
2018-12-14T17:09:04.078Z,5.90
2018-12-14T17:11:36.030Z,5.00
2018-12-14T17:14:04.931Z,5.37
2018-12-14T17:16:35.547Z,7.03
2018-12-14T17:19:06.249Z,6.17
2018-12-14T17:21:36.003Z,4.50
2018-12-14T17:24:05.019Z,5.60
2018-12-14T17:26:37.567Z,4.72
2018-12-14T17:29:09.775Z,5.75
2018-12-14T17:31:39.551Z,5.05
2018-12-14T17:34:10.331Z,4.10
2018-12-14T17:36:43.990Z,5.97
2018-12-14T17:39:14.741Z,4.95
2018-12-14T17:41:44.803Z,5.78
2018-12-14T17:44:13.535Z,4.78
2018-12-14T17:46:46.944Z,5.25
2018-12-14T17:49:16.743Z,4.70
2018-12-14T17:51:45.790Z,4.85
2018-12-14T17:54:14.511Z,6.15
2018-12-14T17:56:45.231Z,5.10
2018-12-14T17:59:14.897Z,5.87
2018-12-14T18:01:43.815Z,4.70
2018-12-14T18:04:19.739Z,5.33
2018-12-14T18:06:49.339Z,4.85
2018-12-14T18:09:21.492Z,5.42
2018-12-14T18:11:51.410Z,7.28
2018-12-14T18:14:20.155Z,5.80
2018-12-14T18:16:48.891Z,6.17
2018-12-14T18:19:17.639Z,5.08
2018-12-14T18:21:46.551Z,5.70
2018-12-14T18:24:18.503Z,5.03
2018-12-14T18:26:47.462Z,5.92
2018-12-14T18:29:16.284Z,6.62
2018-12-14T18:31:46.531Z,7.28
2018-12-14T18:34:15.355Z,4.65
2018-12-14T18:36:49.643Z,5.70
2018-12-14T18:39:19.447Z,5.87
2018-12-14T18:41:49.107Z,5.85
2018-12-14T18:44:18.763Z,5.50
2018-12-14T18:46:51.291Z,6.62
2018-12-14T18:49:20.971Z,6.17
2018-12-14T18:51:49.695Z,6.53
2018-12-14T18:54:20.315Z,7.03
2018-12-14T18:56:54.131Z,6.28
2018-12-14T18:59:25.131Z,6.33
2018-12-14T19:02:00.503Z,6.50
2018-12-14T19:07:10.043Z,7.08
2018-12-14T19:09:38.923Z,6.58
2018-12-14T19:12:08.675Z,7.30
2018-12-14T19:14:38.400Z,6.65
2018-12-14T19:17:12.555Z,6.60
2018-12-14T19:19:46.111Z,6.70
2018-12-14T19:22:14.927Z,6.50
2018-12-14T19:24:45.568Z,8.40
2018-12-14T19:27:15.259Z,7.53
2018-12-14T19:29:44.060Z,8.08
2018-12-14T19:32:13.719Z,8.10
2018-12-14T19:34:42.532Z,8.75
2018-12-14T19:37:13.357Z,7.22
2018-12-14T19:39:42.181Z,7.45
2018-12-14T19:42:10.991Z,6.78
2018-12-14T19:44:40.715Z,7.85
2018-12-14T19:47:10.656Z,7.30
2018-12-14T19:49:39.777Z,6.97
2018-12-14T19:52:09.908Z,8.25
2018-12-14T19:54:42.311Z,8.05
2018-12-14T19:57:11.123Z,6.83
2018-12-14T19:59:40.540Z,7.33
2018-12-14T20:02:09.388Z,6.42
2018-12-14T20:04:41.996Z,8.03
2018-12-14T20:07:12.639Z,6.58
2018-12-14T20:09:44.728Z,6.78
2018-12-14T20:12:17.795Z,6.75
2018-12-14T20:14:46.567Z,7.97
2018-12-14T20:17:17.256Z,8.05
2018-12-14T20:19:50.587Z,7.20
2018-12-14T20:22:24.288Z,7.97
2018-12-14T20:24:54.916Z,7.55
2018-12-14T20:27:27.194Z,6.97
2018-12-14T20:29:56.119Z,7.40
2018-12-14T20:32:24.971Z,7.35
2018-12-14T20:34:54.659Z,8.20
2018-12-14T20:37:23.668Z,6.80
2018-12-14T20:39:55.827Z,8.00
2018-12-14T20:42:24.635Z,6.62
2018-12-14T20:44:57.231Z,7.50
2018-12-14T20:47:27.099Z,8.05
2018-12-14T20:49:55.919Z,8.23
2018-12-14T20:52:31.011Z,8.13
2018-12-14T20:54:59.823Z,7.35
2018-12-14T20:57:33.679Z,6.90
2018-12-14T21:00:05.307Z,8.05
2018-12-14T21:02:38.917Z,7.72
2018-12-14T21:05:08.035Z,7.00
2018-12-14T21:07:36.871Z,7.70
2018-12-14T21:10:09.307Z,8.10
2018-12-14T21:12:44.938Z,7.72
2018-12-14T21:15:13.711Z,8.25
2018-12-14T21:17:42.567Z,8.40
2018-12-14T21:20:13.592Z,7.40
2018-12-14T21:22:45.460Z,7.50
2018-12-14T21:25:15.439Z,8.33
2018-12-14T21:27:45.213Z,9.63
2018-12-14T21:30:14.071Z,7.35
2018-12-14T21:32:42.935Z,9.00
2018-12-14T21:35:12.223Z,9.30
2018-12-14T21:37:42.227Z,7.35
2018-12-14T21:40:11.203Z,7.15
2018-12-14T21:42:40.035Z,7.83
2018-12-14T21:45:10.887Z,7.80
2018-12-14T21:47:39.703Z,7.65
2018-12-14T21:50:14.403Z,8.00
2018-12-14T21:52:43.269Z,8.40
2018-12-14T21:55:13.167Z,8.38
2018-12-14T21:57:41.929Z,8.83
2018-12-14T22:00:12.070Z,7.95
2018-12-14T22:02:41.003Z,7.95
2018-12-14T22:05:12.795Z,8.80
2018-12-14T22:07:41.672Z,9.35
2018-12-14T22:10:12.439Z,8.30
2018-12-14T22:12:41.259Z,8.45
2018-12-14T22:15:16.112Z,9.45
2018-12-14T22:17:48.091Z,8.48
2018-12-14T22:20:18.863Z,8.50
2018-12-14T22:22:50.979Z,9.20
2018-12-14T22:25:25.867Z,8.08
2018-12-14T22:27:56.701Z,9.85
2018-12-14T22:30:26.419Z,9.35
2018-12-14T22:32:58.463Z,9.10
2018-12-14T22:35:27.423Z,10.88
2018-12-14T22:37:58.179Z,9.90
2018-12-14T22:40:27.074Z,9.78
2018-12-14T22:42:55.895Z,9.03
2018-12-14T22:45:26.551Z,9.38
2018-12-14T22:47:57.639Z,9.60
2018-12-14T22:50:30.111Z,8.40
2018-12-14T22:53:00.992Z,10.05
2018-12-14T22:55:29.723Z,9.30
2018-12-14T22:57:59.410Z,11.50
2018-12-14T23:00:30.323Z,10.55
2018-12-14T23:02:59.148Z,8.98
2018-12-14T23:05:28.028Z,9.50
2018-12-14T23:07:57.811Z,9.78
2018-12-14T23:10:28.548Z,9.95
2018-12-14T23:12:57.276Z,8.68
2018-12-14T23:15:32.099Z,10.75
2018-12-14T23:18:01.260Z,10.60
2018-12-14T23:20:30.179Z,9.85
2018-12-14T23:22:58.955Z,9.75
2018-12-14T23:25:29.579Z,10.70
2018-12-14T23:28:02.611Z,10.85
2018-12-14T23:30:33.327Z,10.48
2018-12-14T23:33:02.259Z,9.93
2018-12-14T23:35:31.930Z,11.48
2018-12-14T23:38:00.671Z,9.18
2018-12-14T23:40:29.455Z,9.55
2018-12-14T23:42:58.257Z,9.70
2018-12-14T23:45:27.143Z,11.80
2018-12-14T23:48:00.544Z,10.08
2018-12-14T23:50:30.091Z,10.23
2018-12-14T23:52:58.930Z,9.30
2018-12-14T23:55:27.639Z,9.60
2018-12-14T23:57:56.596Z,9.85
